Airfield :
LOGIN :

Register | Disclaimer

   EN    FR    IT 

 










Legend :    VFR   Marginal VFR   IFR   Intensive IFR   Very Intensive IFR
Visi :
Ceiling :
>= 8 km
>= 3000ft
5 to 8 km
1000 to 3000 ft
1500m to 5 km
500 to 1000 ft
800 to 1500m
200 to 500 ft
< 800m
< 200 ft
Symbols :   Thunderstorms  Fog  Heavy snow  Heavy precipitations  Wind > 20 kt
SIGMETs :     Misc.  Thunderstorms  Icing  Turbulence  Mountain Waves  Volcanic Ashes






- Airport Elevation : 2096 ft
- IATA code : AUR


LFLW - Aurillac

CURRENT METAR :
  • 141830Z AUTO 14013KT 9999 -RA FEW029 SCT110 BKN180 17/13 Q1010

EXPIRED METARs :
  • 141800Z AUTO 13013KT 9999 -RA NSC 17/13 Q1011 TEMPO 2000 TSRA BKN014 SCT025CB BECMG 15018G30KT
  • 141730Z AUTO 13013KT 9999 -RA ///TCU 17/14 Q1011 TEMPO 2000 TSRA BKN014 SCT025CB BECMG 15018G30KT
  • 141700Z AUTO 14011KT 9999 -RA BKN032/// BKN043/// BKN070/// ///TCU 18/13 Q1011 TEMPO 2000 TSRA BKN014 SCT025CB BECMG 15018G30KT
  • 141630Z AUTO 15009KT 110V180 9999 -RA BKN034/// BKN040/// BKN050/// ///TCU 18/14 Q1012 TEMPO 2000 TSRA BKN014 SCT025CB BECMG 15018G30KT
  • 141600Z AUTO 15010KT 120V180 9999 BKN032/// OVC038/// ///TCU 19/13 Q1012 TEMPO FEW060CB BECMG 15018G30KT

TAF TAF LFLW
Valid from the 14 at 15:00 until the 15 at 00:00 UTC


141400Z 1415/1424 15018G30KT CAVOK
PROB40
TEMPO 1415/1418 -SHRA FEW060CB
PROB40
TEMPO 1418/1424 2000 TSRA BKN014 SCT025CB



MET'MAP, your aeronautical weather chart ! - Copyright ORBIFLY December 2007 - Disclaimer

ORBIFLY MET'MAP TEAM :

Programming & Development : Alexandra Zaïnal
Concept & Development : Baudouin d'Aumeries
Co-Development & Prog : Marc-Olivier Méhu
Technical & hardware support : Manuel Goepfert

Contact : metmap@orbifly.com




SOURCES & CREDITS :

   NOAA